createdAt,value
2019-03-23T00:02:16.860Z,32.33
2019-03-23T00:07:23.117Z,33.25
2019-03-23T00:12:32.428Z,28.25
2019-03-23T00:17:41.892Z,30.50
2019-03-23T00:22:46.916Z,31.57
2019-03-23T00:27:55.505Z,32.00
2019-03-23T00:33:04.883Z,33.00
2019-03-23T00:38:14.336Z,33.63
2019-03-23T00:43:25.246Z,34.00
2019-03-23T00:48:35.425Z,32.00
2019-03-23T00:53:39.960Z,31.50
2019-03-23T00:58:49.379Z,33.78
2019-03-23T01:03:53.686Z,32.50
2019-03-23T01:09:01.535Z,33.67
2019-03-23T01:14:13.552Z,31.00
2019-03-23T01:19:21.274Z,32.22
2019-03-23T01:24:30.919Z,32.50
2019-03-23T01:29:40.582Z,34.56
2019-03-23T01:34:50.051Z,31.89
2019-03-23T01:39:57.894Z,34.00
2019-03-23T01:45:08.994Z,31.22
2019-03-23T01:50:13.039Z,35.00
2019-03-23T01:55:23.960Z,34.22
2019-03-23T02:00:34.449Z,34.70
2019-03-23T02:05:41.446Z,33.38
2019-03-23T02:10:51.794Z,31.60
2019-03-23T02:16:01.279Z,32.11
2019-03-23T02:21:10.718Z,30.22
2019-03-23T02:26:17.606Z,31.56
2019-03-23T02:31:25.307Z,31.00
2019-03-23T02:36:34.784Z,33.56
2019-03-23T02:41:42.611Z,33.89
2019-03-23T02:46:52.292Z,31.00
2019-03-23T02:52:01.879Z,33.00
2019-03-23T02:57:12.390Z,33.67
2019-03-23T03:02:21.957Z,32.89
2019-03-23T03:07:41.813Z,32.00
2019-03-23T03:12:40.512Z,31.78
2019-03-23T03:17:49.591Z,30.00
2019-03-23T03:22:58.803Z,29.87
2019-03-23T03:28:07.207Z,30.56
2019-03-23T03:33:15.476Z,28.12
2019-03-23T03:38:23.772Z,28.00
2019-03-23T03:43:31.348Z,29.78
2019-03-23T03:48:39.643Z,29.44
2019-03-23T03:53:45.494Z,29.25
2019-03-23T03:58:52.196Z,29.33
2019-03-23T04:03:59.852Z,30.00
2019-03-23T04:09:09.010Z,29.50
2019-03-23T04:14:12.222Z,29.00
2019-03-23T04:19:19.640Z,29.00
2019-03-23T04:24:28.967Z,28.00
2019-03-23T04:29:38.168Z,31.87
2019-03-23T04:34:47.345Z,27.87
2019-03-23T04:39:56.588Z,30.17
2019-03-23T04:45:01.722Z,27.43
2019-03-23T04:50:08.514Z,25.12
2019-03-23T04:55:16.603Z,25.78
2019-03-23T05:00:21.692Z,25.67
2019-03-23T05:05:30.551Z,26.56
2019-03-23T05:10:38.238Z,28.67
2019-03-23T05:15:44.172Z,27.62
2019-03-23T05:20:49.231Z,26.14
2019-03-23T05:25:58.436Z,26.89
2019-03-23T05:31:04.194Z,23.50
2019-03-23T05:36:10.786Z,26.75
2019-03-23T05:41:20.518Z,26.00
2019-03-23T05:46:27.886Z,23.12
2019-03-23T05:51:35.938Z,25.00
2019-03-23T05:56:44.991Z,24.67
2019-03-23T06:01:52.291Z,24.00
2019-03-23T06:06:59.699Z,28.00
2019-03-23T06:12:04.315Z,27.00
2019-03-23T06:17:15.011Z,24.33
2019-03-23T06:22:24.743Z,23.00
2019-03-23T06:27:32.799Z,23.00
2019-03-23T06:32:36.911Z,21.00
2019-03-23T06:37:42.582Z,24.75
2019-03-23T06:42:47.519Z,23.50
2019-03-23T06:47:55.775Z,22.00
2019-03-23T06:53:00.458Z,17.50
2019-03-23T06:58:08.806Z,25.62
2019-03-23T07:03:18.112Z,27.50
2019-03-23T07:08:31.801Z,20.50
2019-03-23T07:13:37.246Z,23.00
2019-03-23T07:18:45.169Z,24.00
2019-03-23T07:23:51.163Z,22.62
2019-03-23T07:28:56.231Z,27.00
2019-03-23T07:34:00.613Z,26.00
2019-03-23T07:39:07.684Z,31.25
2019-03-23T07:44:12.774Z,26.25
2019-03-23T07:49:17.139Z,22.00
2019-03-23T07:54:25.679Z,23.25
2019-03-23T07:59:33.503Z,28.62
2019-03-23T08:04:42.011Z,27.00
2019-03-23T08:09:48.229Z,27.50
2019-03-23T08:14:54.482Z,28.12
2019-03-23T08:20:00.468Z,27.62
2019-03-23T08:25:06.686Z,26.37
2019-03-23T08:30:12.783Z,25.12
2019-03-23T08:35:17.712Z,22.00
2019-03-23T08:40:26.215Z,24.00
2019-03-23T08:45:35.443Z,25.00
2019-03-23T08:50:40.494Z,26.29
2019-03-23T08:55:44.863Z,24.00
2019-03-23T09:00:53.762Z,23.12
2019-03-23T09:06:00.051Z,28.00
2019-03-23T09:11:06.179Z,26.12
2019-03-23T09:16:10.591Z,27.33
2019-03-23T09:21:17.610Z,30.50
2019-03-23T09:26:25.553Z,28.12
2019-03-23T09:31:31.619Z,22.62
2019-03-23T09:36:37.803Z,25.00
2019-03-23T09:41:44.100Z,24.50
2019-03-23T09:46:47.529Z,25.00
2019-03-23T09:51:57.261Z,35.13
2019-03-23T09:57:05.721Z,23.12
2019-03-23T10:02:09.502Z,25.25
2019-03-23T10:07:14.278Z,26.75
2019-03-23T10:12:24.343Z,25.00
2019-03-23T10:17:30.744Z,26.62
2019-03-23T10:22:33.919Z,26.33
2019-03-23T10:27:37.848Z,25.00
2019-03-23T10:32:41.851Z,25.00
2019-03-23T10:37:50.880Z,26.00
2019-03-23T10:42:55.443Z,27.25
2019-03-23T10:48:00.136Z,27.00
2019-03-23T10:53:04.638Z,30.75
2019-03-23T10:58:09.278Z,28.00
2019-03-23T11:03:13.959Z,25.25
2019-03-23T11:08:21.547Z,32.57
2019-03-23T11:13:27.731Z,25.37
2019-03-23T11:18:31.443Z,25.25
2019-03-23T11:23:39.807Z,26.37
2019-03-23T11:28:47.920Z,27.87
2019-03-23T11:33:51.690Z,23.75
2019-03-23T11:38:55.055Z,26.67
2019-03-23T11:44:02.101Z,24.12
2019-03-23T11:49:08.111Z,29.25
2019-03-23T11:54:12.087Z,26.00
2019-03-23T11:59:17.846Z,22.00
2019-03-23T12:04:25.276Z,24.75
2019-03-23T12:09:33.885Z,23.00
2019-03-23T12:14:41.685Z,20.00
2019-03-23T12:19:49.531Z,21.00
2019-03-23T12:24:55.604Z,22.00
2019-03-23T12:30:07.508Z,18.00
2019-03-23T12:35:18.097Z,21.55
2019-03-23T12:40:24.922Z,20.37
2019-03-23T12:45:31.939Z,21.87
2019-03-23T12:50:38.243Z,19.00
2019-03-23T12:55:44.471Z,21.62
2019-03-23T13:00:52.344Z,23.87
2019-03-23T13:05:58.555Z,18.25
2019-03-23T13:11:02.140Z,17.00
2019-03-23T13:16:10.826Z,20.00
2019-03-23T13:21:18.446Z,16.00
2019-03-23T13:26:24.561Z,19.37
2019-03-23T13:31:30.691Z,18.12
2019-03-23T13:36:34.302Z,20.00
2019-03-23T13:41:47.308Z,18.00
2019-03-23T13:46:53.406Z,18.50
2019-03-23T13:51:56.970Z,20.00
2019-03-23T13:57:00.906Z,18.00
2019-03-23T14:02:05.510Z,19.50
2019-03-23T14:07:10.461Z,14.25
2019-03-23T14:12:18.337Z,17.87
2019-03-23T14:17:23.442Z,20.50
2019-03-23T14:22:27.027Z,14.00
2019-03-23T14:27:33.017Z,15.75
2019-03-23T14:32:39.734Z,12.13
2019-03-23T14:37:44.799Z,16.00
2019-03-23T14:42:50.696Z,14.63
2019-03-23T14:47:54.232Z,13.50
2019-03-23T14:53:02.025Z,13.38
2019-03-23T14:58:05.664Z,15.50
2019-03-23T15:03:14.307Z,16.00
2019-03-23T15:08:17.791Z,14.00
2019-03-23T15:13:22.770Z,12.00
2019-03-23T15:18:28.756Z,13.62
2019-03-23T15:23:35.329Z,13.88
2019-03-23T15:28:41.471Z,13.00
2019-03-23T15:33:48.196Z,12.29
2019-03-23T15:38:52.159Z,12.00
2019-03-23T15:43:57.650Z,13.00
2019-03-23T15:49:03.694Z,12.29
2019-03-23T15:54:09.422Z,11.00
2019-03-23T15:59:15.335Z,14.00
2019-03-23T16:04:22.033Z,12.63
2019-03-23T16:09:25.435Z,15.00
2019-03-23T16:14:30.522Z,10.71
2019-03-23T16:19:36.201Z,11.29
2019-03-23T16:24:43.067Z,12.00
2019-03-23T16:29:47.439Z,13.00
2019-03-23T16:34:51.838Z,6.17
2019-03-23T16:39:58.889Z,19.00
2019-03-23T16:45:08.619Z,14.00
2019-03-23T16:50:12.540Z,14.00
2019-03-23T16:55:17.720Z,16.00
2019-03-23T17:00:23.463Z,18.00
2019-03-23T17:05:28.770Z,15.14
2019-03-23T17:10:36.492Z,13.75
2019-03-23T17:15:42.736Z,15.14
2019-03-23T17:20:46.246Z,14.50
2019-03-23T17:25:51.071Z,13.00
2019-03-23T17:30:59.853Z,16.00
2019-03-23T17:36:04.289Z,16.00
2019-03-23T17:41:10.408Z,17.75
2019-03-23T17:46:15.126Z,20.50
2019-03-23T17:51:19.174Z,19.50
2019-03-23T17:56:23.913Z,22.00
2019-03-23T18:01:32.731Z,23.00
2019-03-23T18:06:37.301Z,24.00
2019-03-23T18:11:42.008Z,32.00
2019-03-23T18:16:48.435Z,28.00
2019-03-23T18:21:55.703Z,27.25
2019-03-23T18:26:59.512Z,27.00
2019-03-23T18:32:09.415Z,25.50
2019-03-23T18:37:13.265Z,33.75
2019-03-23T18:42:21.711Z,28.75
2019-03-23T18:47:29.965Z,32.00
2019-03-23T18:52:36.475Z,29.75
2019-03-23T18:57:43.272Z,30.88
2019-03-23T19:02:51.482Z,31.00
2019-03-23T19:07:55.563Z,28.00
2019-03-23T19:13:00.414Z,31.75
2019-03-23T19:18:08.637Z,30.75
2019-03-23T19:23:15.165Z,27.50
2019-03-23T19:28:21.699Z,28.00
2019-03-23T19:33:29.887Z,31.62
2019-03-23T19:38:33.851Z,29.00
2019-03-23T19:43:48.391Z,29.00
2019-03-23T19:48:44.096Z,28.00
2019-03-23T19:53:48.670Z,26.75
2019-03-23T19:58:52.643Z,26.00
2019-03-23T20:03:57.517Z,28.75
2019-03-23T20:09:01.561Z,30.25
2019-03-23T20:14:08.166Z,27.00
2019-03-23T20:19:13.114Z,25.50
2019-03-23T20:24:17.794Z,28.25
2019-03-23T20:29:26.784Z,28.75
2019-03-23T20:34:33.370Z,32.25
2019-03-23T20:39:40.064Z,31.00
2019-03-23T20:44:46.814Z,33.25
2019-03-23T20:49:50.228Z,31.00
2019-03-23T20:55:00.412Z,31.00
2019-03-23T21:00:11.132Z,32.63
2019-03-23T21:05:19.171Z,34.00
2019-03-23T21:10:27.665Z,34.13
2019-03-23T21:15:34.411Z,35.13
2019-03-23T21:20:40.310Z,33.86
2019-03-23T21:25:47.757Z,40.78
2019-03-23T21:30:51.976Z,36.00
2019-03-23T21:35:59.069Z,40.38
2019-03-23T21:41:05.471Z,38.63
2019-03-23T21:46:12.743Z,37.67
2019-03-23T21:51:20.205Z,37.00
2019-03-23T21:56:27.372Z,39.00
2019-03-23T22:01:34.869Z,42.22
2019-03-23T22:06:43.530Z,43.00
2019-03-23T22:11:52.373Z,40.75
2019-03-23T22:16:57.344Z,42.50
2019-03-23T22:22:06.610Z,41.10
2019-03-23T22:27:14.797Z,44.44
2019-03-23T22:32:22.265Z,51.44
2019-03-23T22:37:30.518Z,46.33
2019-03-23T22:42:41.186Z,47.80
2019-03-23T22:47:51.848Z,37.00
2019-03-23T22:53:00.767Z,37.00
2019-03-23T22:58:10.570Z,36.78
2019-03-23T23:03:17.823Z,40.86
2019-03-23T23:08:25.470Z,43.67
2019-03-23T23:13:35.880Z,46.90
2019-03-23T23:18:45.639Z,38.78
2019-03-23T23:23:52.878Z,35.00
2019-03-23T23:28:55.966Z,35.00
2019-03-23T23:34:04.990Z,34.25
2019-03-23T23:39:11.229Z,35.50
2019-03-23T23:44:19.206Z,40.10
2019-03-23T23:49:28.184Z,35.00
2019-03-23T23:54:36.281Z,40.89
2019-03-23T23:59:45.164Z,37.33
